sensor_id;sensor_type;location;lat;lon;timestamp;temperature;humidity
27026;DHT22;14565;48.626;8.978;2022-07-11T00:01:37;12.60;99.90
27026;DHT22;14565;48.626;8.978;2022-07-11T00:04:03;12.60;99.90
27026;DHT22;14565;48.626;8.978;2022-07-11T00:06:28;12.70;99.90
27026;DHT22;14565;48.626;8.978;2022-07-11T00:08:54;12.70;99.90
27026;DHT22;14565;48.626;8.978;2022-07-11T00:11:20;12.70;99.90
27026;DHT22;14565;48.626;8.978;2022-07-11T00:13:46;12.70;99.90
27026;DHT22;14565;48.626;8.978;2022-07-11T00:16:11;12.60;99.90
27026;DHT22;14565;48.626;8.978;2022-07-11T00:18:38;12.70;99.90
27026;DHT22;14565;48.626;8.978;2022-07-11T00:21:04;12.50;99.90
27026;DHT22;14565;48.626;8.978;2022-07-11T00:23:30;12.30;99.90
27026;DHT22;14565;48.626;8.978;2022-07-11T00:25:56;12.20;99.90
27026;DHT22;14565;48.626;8.978;2022-07-11T00:28:21;12.40;99.90
27026;DHT22;14565;48.626;8.978;2022-07-11T00:30:47;12.60;99.90
27026;DHT22;14565;48.626;8.978;2022-07-11T00:33:15;12.70;99.90
27026;DHT22;14565;48.626;8.978;2022-07-11T00:35:41;12.80;99.90
27026;DHT22;14565;48.626;8.978;2022-07-11T00:38:09;12.80;99.90
27026;DHT22;14565;48.626;8.978;2022-07-11T00:40:34;12.80;99.90
27026;DHT22;14565;48.626;8.978;2022-07-11T00:43:03;12.80;99.90
27026;DHT22;14565;48.626;8.978;2022-07-11T00:45:29;12.70;99.90
27026;DHT22;14565;48.626;8.978;2022-07-11T00:47:54;12.80;99.90
27026;DHT22;14565;48.626;8.978;2022-07-11T00:50:22;12.70;99.90
27026;DHT22;14565;48.626;8.978;2022-07-11T00:52:50;12.80;99.90
27026;DHT22;14565;48.626;8.978;2022-07-11T00:55:16;12.90;99.90
27026;DHT22;14565;48.626;8.978;2022-07-11T00:57:42;12.90;99.90
27026;DHT22;14565;48.626;8.978;2022-07-11T01:00:08;12.90;99.90
27026;DHT22;14565;48.626;8.978;2022-07-11T01:02:35;13.00;99.90
27026;DHT22;14565;48.626;8.978;2022-07-11T01:05:00;13.10;99.90
27026;DHT22;14565;48.626;8.978;2022-07-11T01:07:26;13.10;99.90
27026;DHT22;14565;48.626;8.978;2022-07-11T01:09:52;13.20;99.90
27026;DHT22;14565;48.626;8.978;2022-07-11T01:12:17;13.20;99.90
27026;DHT22;14565;48.626;8.978;2022-07-11T01:14:53;13.20;99.90
27026;DHT22;14565;48.626;8.978;2022-07-11T01:17:19;13.20;99.90
27026;DHT22;14565;48.626;8.978;2022-07-11T01:19:45;13.30;99.90
27026;DHT22;14565;48.626;8.978;2022-07-11T01:22:15;13.30;99.90
27026;DHT22;14565;48.626;8.978;2022-07-11T01:24:42;13.20;99.90
27026;DHT22;14565;48.626;8.978;2022-07-11T01:27:09;13.30;99.90
27026;DHT22;14565;48.626;8.978;2022-07-11T01:29:34;13.30;99.90
27026;DHT22;14565;48.626;8.978;2022-07-11T01:32:00;13.40;99.90
27026;DHT22;14565;48.626;8.978;2022-07-11T01:34:26;13.30;99.90
27026;DHT22;14565;48.626;8.978;2022-07-11T01:36:52;13.20;99.90
27026;DHT22;14565;48.626;8.978;2022-07-11T01:39:17;13.20;99.90
27026;DHT22;14565;48.626;8.978;2022-07-11T01:41:43;13.30;99.90
27026;DHT22;14565;48.626;8.978;2022-07-11T01:44:09;13.30;99.90
27026;DHT22;14565;48.626;8.978;2022-07-11T01:46:34;13.40;99.90
27026;DHT22;14565;48.626;8.978;2022-07-11T01:49:00;13.40;99.90
27026;DHT22;14565;48.626;8.978;2022-07-11T01:51:28;13.40;99.90
27026;DHT22;14565;48.626;8.978;2022-07-11T01:53:53;13.30;99.90
27026;DHT22;14565;48.626;8.978;2022-07-11T01:56:21;13.30;99.90
27026;DHT22;14565;48.626;8.978;2022-07-11T01:58:47;13.30;99.90
27026;DHT22;14565;48.626;8.978;2022-07-11T02:01:13;13.40;99.90
27026;DHT22;14565;48.626;8.978;2022-07-11T02:03:39;13.40;99.90
27026;DHT22;14565;48.626;8.978;2022-07-11T02:06:05;13.40;99.90
27026;DHT22;14565;48.626;8.978;2022-07-11T02:08:31;13.40;99.90
27026;DHT22;14565;48.626;8.978;2022-07-11T02:10:56;13.30;99.90
27026;DHT22;14565;48.626;8.978;2022-07-11T02:13:22;13.30;99.90
27026;DHT22;14565;48.626;8.978;2022-07-11T02:15:49;13.30;99.90
27026;DHT22;14565;48.626;8.978;2022-07-11T02:18:16;13.20;99.90
27026;DHT22;14565;48.626;8.978;2022-07-11T02:20:43;13.20;99.90
27026;DHT22;14565;48.626;8.978;2022-07-11T02:23:15;13.20;99.90
27026;DHT22;14565;48.626;8.978;2022-07-11T02:25:42;13.20;99.90
27026;DHT22;14565;48.626;8.978;2022-07-11T02:28:08;13.10;99.90
27026;DHT22;14565;48.626;8.978;2022-07-11T02:30:39;13.10;99.90
27026;DHT22;14565;48.626;8.978;2022-07-11T02:33:06;13.00;99.90
27026;DHT22;14565;48.626;8.978;2022-07-11T02:35:39;13.00;99.90
27026;DHT22;14565;48.626;8.978;2022-07-11T02:38:04;13.00;99.90
27026;DHT22;14565;48.626;8.978;2022-07-11T02:40:30;13.00;99.90
27026;DHT22;14565;48.626;8.978;2022-07-11T02:42:56;13.00;99.90
27026;DHT22;14565;48.626;8.978;2022-07-11T02:45:22;13.00;99.90
27026;DHT22;14565;48.626;8.978;2022-07-11T02:47:48;12.90;99.90
27026;DHT22;14565;48.626;8.978;2022-07-11T02:50:14;13.00;99.90
27026;DHT22;14565;48.626;8.978;2022-07-11T02:52:42;12.90;99.90
27026;DHT22;14565;48.626;8.978;2022-07-11T02:55:09;13.00;99.90
27026;DHT22;14565;48.626;8.978;2022-07-11T02:57:36;13.00;99.90
27026;DHT22;14565;48.626;8.978;2022-07-11T03:00:08;13.00;99.90
27026;DHT22;14565;48.626;8.978;2022-07-11T03:02:35;13.10;99.90
27026;DHT22;14565;48.626;8.978;2022-07-11T03:05:00;13.10;99.90
27026;DHT22;14565;48.626;8.978;2022-07-11T03:07:27;13.00;99.90
27026;DHT22;14565;48.626;8.978;2022-07-11T03:09:53;12.90;99.90
27026;DHT22;14565;48.626;8.978;2022-07-11T03:12:20;12.90;99.90
27026;DHT22;14565;48.626;8.978;2022-07-11T03:14:45;12.80;99.90
27026;DHT22;14565;48.626;8.978;2022-07-11T03:17:11;12.80;99.90
27026;DHT22;14565;48.626;8.978;2022-07-11T03:19:37;12.90;99.90
27026;DHT22;14565;48.626;8.978;2022-07-11T03:22:04;12.90;99.90
27026;DHT22;14565;48.626;8.978;2022-07-11T03:24:30;13.00;99.90
27026;DHT22;14565;48.626;8.978;2022-07-11T03:26:55;12.90;99.90
27026;DHT22;14565;48.626;8.978;2022-07-11T03:29:22;13.00;99.90
27026;DHT22;14565;48.626;8.978;2022-07-11T03:31:47;13.00;99.90
27026;DHT22;14565;48.626;8.978;2022-07-11T03:34:13;13.00;99.90
27026;DHT22;14565;48.626;8.978;2022-07-11T03:36:39;13.10;99.90
27026;DHT22;14565;48.626;8.978;2022-07-11T03:39:04;13.10;99.90
27026;DHT22;14565;48.626;8.978;2022-07-11T03:41:30;13.10;99.90
27026;DHT22;14565;48.626;8.978;2022-07-11T03:43:56;13.10;99.90
27026;DHT22;14565;48.626;8.978;2022-07-11T03:46:22;13.10;99.90
27026;DHT22;14565;48.626;8.978;2022-07-11T03:48:48;13.20;99.90
27026;DHT22;14565;48.626;8.978;2022-07-11T03:51:15;13.10;99.90
27026;DHT22;14565;48.626;8.978;2022-07-11T03:53:42;13.20;99.90
27026;DHT22;14565;48.626;8.978;2022-07-11T03:56:08;13.20;99.90
27026;DHT22;14565;48.626;8.978;2022-07-11T03:58:34;13.10;99.90
27026;DHT22;14565;48.626;8.978;2022-07-11T04:00:59;13.20;99.90
27026;DHT22;14565;48.626;8.978;2022-07-11T04:03:25;13.20;99.90
27026;DHT22;14565;48.626;8.978;2022-07-11T04:05:51;13.20;99.90
27026;DHT22;14565;48.626;8.978;2022-07-11T04:08:17;13.30;99.90
27026;DHT22;14565;48.626;8.978;2022-07-11T04:10:43;13.60;99.90
27026;DHT22;14565;48.626;8.978;2022-07-11T04:13:08;13.60;99.90
27026;DHT22;14565;48.626;8.978;2022-07-11T04:15:34;13.80;99.90
27026;DHT22;14565;48.626;8.978;2022-07-11T04:18:00;13.80;99.90
27026;DHT22;14565;48.626;8.978;2022-07-11T04:20:26;13.90;99.90
27026;DHT22;14565;48.626;8.978;2022-07-11T04:22:52;14.10;99.90
27026;DHT22;14565;48.626;8.978;2022-07-11T04:25:17;14.10;99.90
27026;DHT22;14565;48.626;8.978;2022-07-11T04:27:43;13.90;99.90
27026;DHT22;14565;48.626;8.978;2022-07-11T04:30:09;13.90;99.90
27026;DHT22;14565;48.626;8.978;2022-07-11T04:32:35;14.00;99.90
27026;DHT22;14565;48.626;8.978;2022-07-11T04:35:02;14.20;99.90
27026;DHT22;14565;48.626;8.978;2022-07-11T04:37:28;14.20;99.90
27026;DHT22;14565;48.626;8.978;2022-07-11T04:39:54;14.10;99.90
27026;DHT22;14565;48.626;8.978;2022-07-11T04:42:19;14.10;99.90
27026;DHT22;14565;48.626;8.978;2022-07-11T04:44:45;14.10;99.90
27026;DHT22;14565;48.626;8.978;2022-07-11T04:47:11;14.20;99.90
27026;DHT22;14565;48.626;8.978;2022-07-11T04:49:37;14.30;99.90
27026;DHT22;14565;48.626;8.978;2022-07-11T04:52:04;14.30;99.90
27026;DHT22;14565;48.626;8.978;2022-07-11T04:54:30;14.40;99.90
27026;DHT22;14565;48.626;8.978;2022-07-11T04:56:55;14.50;99.90
27026;DHT22;14565;48.626;8.978;2022-07-11T04:59:22;14.60;99.90
27026;DHT22;14565;48.626;8.978;2022-07-11T05:01:48;14.60;99.90
27026;DHT22;14565;48.626;8.978;2022-07-11T05:04:15;14.80;99.90
27026;DHT22;14565;48.626;8.978;2022-07-11T05:06:41;14.80;99.90
27026;DHT22;14565;48.626;8.978;2022-07-11T05:09:07;15.00;99.90
27026;DHT22;14565;48.626;8.978;2022-07-11T05:11:34;15.10;99.90
27026;DHT22;14565;48.626;8.978;2022-07-11T05:14:00;15.20;99.90
27026;DHT22;14565;48.626;8.978;2022-07-11T05:16:26;15.40;99.90
27026;DHT22;14565;48.626;8.978;2022-07-11T05:18:52;15.40;99.90
27026;DHT22;14565;48.626;8.978;2022-07-11T05:21:17;15.30;99.90
27026;DHT22;14565;48.626;8.978;2022-07-11T05:23:48;15.50;99.90
27026;DHT22;14565;48.626;8.978;2022-07-11T05:26:13;16.00;99.90
27026;DHT22;14565;48.626;8.978;2022-07-11T05:28:40;15.80;99.90
27026;DHT22;14565;48.626;8.978;2022-07-11T05:31:06;15.90;99.90
27026;DHT22;14565;48.626;8.978;2022-07-11T05:33:31;16.00;99.90
27026;DHT22;14565;48.626;8.978;2022-07-11T05:35:58;16.20;99.90
27026;DHT22;14565;48.626;8.978;2022-07-11T05:38:24;16.20;99.90
27026;DHT22;14565;48.626;8.978;2022-07-11T05:40:49;16.90;99.90
27026;DHT22;14565;48.626;8.978;2022-07-11T05:43:15;17.30;99.90
27026;DHT22;14565;48.626;8.978;2022-07-11T05:45:40;18.20;99.90
27026;DHT22;14565;48.626;8.978;2022-07-11T05:48:06;19.00;99.90
27026;DHT22;14565;48.626;8.978;2022-07-11T05:50:32;19.80;99.90
27026;DHT22;14565;48.626;8.978;2022-07-11T05:52:57;18.10;99.90
27026;DHT22;14565;48.626;8.978;2022-07-11T05:55:24;17.80;99.90
27026;DHT22;14565;48.626;8.978;2022-07-11T05:57:50;17.60;99.90
27026;DHT22;14565;48.626;8.978;2022-07-11T06:00:15;17.10;99.90
27026;DHT22;14565;48.626;8.978;2022-07-11T06:02:41;16.90;99.90
27026;DHT22;14565;48.626;8.978;2022-07-11T06:05:10;16.90;99.90
27026;DHT22;14565;48.626;8.978;2022-07-11T06:07:37;17.70;99.90
27026;DHT22;14565;48.626;8.978;2022-07-11T06:10:21;17.10;99.90
27026;DHT22;14565;48.626;8.978;2022-07-11T06:12:47;17.30;99.90
27026;DHT22;14565;48.626;8.978;2022-07-11T06:15:12;17.40;99.90
27026;DHT22;14565;48.626;8.978;2022-07-11T06:17:38;18.30;99.90
27026;DHT22;14565;48.626;8.978;2022-07-11T06:20:04;19.70;99.90
27026;DHT22;14565;48.626;8.978;2022-07-11T06:22:30;19.90;99.90
27026;DHT22;14565;48.626;8.978;2022-07-11T06:24:55;19.10;99.90
27026;DHT22;14565;48.626;8.978;2022-07-11T06:27:21;19.20;99.90
27026;DHT22;14565;48.626;8.978;2022-07-11T06:29:47;19.40;99.90
27026;DHT22;14565;48.626;8.978;2022-07-11T06:32:12;20.50;99.90
27026;DHT22;14565;48.626;8.978;2022-07-11T06:34:38;19.90;99.90
27026;DHT22;14565;48.626;8.978;2022-07-11T06:37:04;20.00;99.90
27026;DHT22;14565;48.626;8.978;2022-07-11T06:39:29;19.80;99.90
27026;DHT22;14565;48.626;8.978;2022-07-11T06:41:55;22.60;99.90
27026;DHT22;14565;48.626;8.978;2022-07-11T06:44:21;22.40;99.90
27026;DHT22;14565;48.626;8.978;2022-07-11T06:46:46;22.70;99.20
27026;DHT22;14565;48.626;8.978;2022-07-11T06:49:14;20.00;99.90
27026;DHT22;14565;48.626;8.978;2022-07-11T06:51:39;19.20;99.90
27026;DHT22;14565;48.626;8.978;2022-07-11T06:54:05;21.40;99.90
27026;DHT22;14565;48.626;8.978;2022-07-11T06:56:31;22.40;99.90
27026;DHT22;14565;48.626;8.978;2022-07-11T06:58:57;22.10;99.90
27026;DHT22;14565;48.626;8.978;2022-07-11T07:01:22;21.00;99.90
27026;DHT22;14565;48.626;8.978;2022-07-11T07:03:48;21.60;99.90
27026;DHT22;14565;48.626;8.978;2022-07-11T07:06:14;20.30;99.90
27026;DHT22;14565;48.626;8.978;2022-07-11T07:08:40;20.50;99.90
27026;DHT22;14565;48.626;8.978;2022-07-11T07:11:05;19.70;99.90
27026;DHT22;14565;48.626;8.978;2022-07-11T07:13:31;20.20;99.90
27026;DHT22;14565;48.626;8.978;2022-07-11T07:15:57;19.60;99.90
27026;DHT22;14565;48.626;8.978;2022-07-11T07:18:23;19.60;99.90
27026;DHT22;14565;48.626;8.978;2022-07-11T07:20:50;20.10;99.90
27026;DHT22;14565;48.626;8.978;2022-07-11T07:23:16;19.80;99.90
27026;DHT22;14565;48.626;8.978;2022-07-11T07:25:42;20.30;99.90
27026;DHT22;14565;48.626;8.978;2022-07-11T07:28:08;20.40;99.90
27026;DHT22;14565;48.626;8.978;2022-07-11T07:30:34;21.00;99.90
27026;DHT22;14565;48.626;8.978;2022-07-11T07:33:02;19.00;99.90
27026;DHT22;14565;48.626;8.978;2022-07-11T07:35:28;20.60;99.90
27026;DHT22;14565;48.626;8.978;2022-07-11T07:37:54;21.60;99.90
27026;DHT22;14565;48.626;8.978;2022-07-11T07:40:20;21.10;99.90
27026;DHT22;14565;48.626;8.978;2022-07-11T07:42:46;21.50;99.90
27026;DHT22;14565;48.626;8.978;2022-07-11T07:45:11;20.90;99.90
27026;DHT22;14565;48.626;8.978;2022-07-11T07:47:37;20.30;99.90
27026;DHT22;14565;48.626;8.978;2022-07-11T07:50:04;20.40;99.90
27026;DHT22;14565;48.626;8.978;2022-07-11T07:52:30;20.20;99.90
27026;DHT22;14565;48.626;8.978;2022-07-11T07:54:56;21.80;99.90
27026;DHT22;14565;48.626;8.978;2022-07-11T07:57:21;21.60;99.90
27026;DHT22;14565;48.626;8.978;2022-07-11T07:59:47;21.70;99.90
27026;DHT22;14565;48.626;8.978;2022-07-11T08:02:13;20.60;99.90
27026;DHT22;14565;48.626;8.978;2022-07-11T08:04:38;21.40;99.90
27026;DHT22;14565;48.626;8.978;2022-07-11T08:07:04;20.80;99.90
27026;DHT22;14565;48.626;8.978;2022-07-11T08:09:30;22.10;99.90
27026;DHT22;14565;48.626;8.978;2022-07-11T08:11:55;21.10;99.90
27026;DHT22;14565;48.626;8.978;2022-07-11T08:14:21;21.20;99.90
27026;DHT22;14565;48.626;8.978;2022-07-11T08:16:48;22.50;99.90
27026;DHT22;14565;48.626;8.978;2022-07-11T08:19:13;22.80;98.60
27026;DHT22;14565;48.626;8.978;2022-07-11T08:21:39;23.00;98.00
27026;DHT22;14565;48.626;8.978;2022-07-11T08:24:05;21.30;99.70
27026;DHT22;14565;48.626;8.978;2022-07-11T08:26:32;21.80;99.80
27026;DHT22;14565;48.626;8.978;2022-07-11T08:28:58;22.10;99.30
27026;DHT22;14565;48.626;8.978;2022-07-11T08:31:24;22.00;99.40
27026;DHT22;14565;48.626;8.978;2022-07-11T08:33:49;22.80;97.60
27026;DHT22;14565;48.626;8.978;2022-07-11T08:36:16;22.60;98.00
27026;DHT22;14565;48.626;8.978;2022-07-11T08:38:42;23.50;96.90
27026;DHT22;14565;48.626;8.978;2022-07-11T08:41:12;22.30;95.40
27026;DHT22;14565;48.626;8.978;2022-07-11T08:43:38;21.30;96.60
27026;DHT22;14565;48.626;8.978;2022-07-11T08:46:08;20.90;98.20
27026;DHT22;14565;48.626;8.978;2022-07-11T08:48:33;20.80;98.20
27026;DHT22;14565;48.626;8.978;2022-07-11T08:51:00;20.60;98.20
27026;DHT22;14565;48.626;8.978;2022-07-11T08:53:27;20.30;98.50
27026;DHT22;14565;48.626;8.978;2022-07-11T08:55:56;20.20;98.20
27026;DHT22;14565;48.626;8.978;2022-07-11T08:58:23;20.80;97.30
27026;DHT22;14565;48.626;8.978;2022-07-11T09:00:48;20.80;97.50
27026;DHT22;14565;48.626;8.978;2022-07-11T09:03:15;20.90;97.80
27026;DHT22;14565;48.626;8.978;2022-07-11T09:05:42;21.10;96.90
27026;DHT22;14565;48.626;8.978;2022-07-11T09:08:08;21.70;96.40
27026;DHT22;14565;48.626;8.978;2022-07-11T09:10:38;21.10;97.70
27026;DHT22;14565;48.626;8.978;2022-07-11T09:13:07;21.20;97.30
27026;DHT22;14565;48.626;8.978;2022-07-11T09:18:28;22.00;97.60
27026;DHT22;14565;48.626;8.978;2022-07-11T09:20:57;21.90;96.20
27026;DHT22;14565;48.626;8.978;2022-07-11T09:23:44;22.20;96.10
27026;DHT22;14565;48.626;8.978;2022-07-11T09:26:30;22.30;96.10
27026;DHT22;14565;48.626;8.978;2022-07-11T09:31:30;22.70;95.10
27026;DHT22;14565;48.626;8.978;2022-07-11T09:36:41;21.10;97.20
27026;DHT22;14565;48.626;8.978;2022-07-11T09:39:09;21.20;97.40
27026;DHT22;14565;48.626;8.978;2022-07-11T09:41:36;21.60;96.50
27026;DHT22;14565;48.626;8.978;2022-07-11T09:46:42;22.60;94.90
27026;DHT22;14565;48.626;8.978;2022-07-11T09:49:09;22.30;96.60
27026;DHT22;14565;48.626;8.978;2022-07-11T09:51:36;22.70;95.20
27026;DHT22;14565;48.626;8.978;2022-07-11T09:54:03;23.00;95.20
27026;DHT22;14565;48.626;8.978;2022-07-11T09:56:45;23.10;94.40
27026;DHT22;14565;48.626;8.978;2022-07-11T09:59:18;22.30;95.50
27026;DHT22;14565;48.626;8.978;2022-07-11T10:01:47;22.60;95.30
27026;DHT22;14565;48.626;8.978;2022-07-11T10:04:12;22.00;95.60
27026;DHT22;14565;48.626;8.978;2022-07-11T10:06:38;22.10;95.70
27026;DHT22;14565;48.626;8.978;2022-07-11T10:09:05;22.30;95.50
27026;DHT22;14565;48.626;8.978;2022-07-11T10:11:32;22.10;95.60
27026;DHT22;14565;48.626;8.978;2022-07-11T10:14:01;22.90;95.10
27026;DHT22;14565;48.626;8.978;2022-07-11T10:16:47;23.40;93.90
27026;DHT22;14565;48.626;8.978;2022-07-11T10:19:48;23.10;94.60
27026;DHT22;14565;48.626;8.978;2022-07-11T10:29:56;22.60;94.20
27026;DHT22;14565;48.626;8.978;2022-07-11T10:32:22;23.10;93.90
27026;DHT22;14565;48.626;8.978;2022-07-11T10:37:50;24.60;92.20
27026;DHT22;14565;48.626;8.978;2022-07-11T10:40:42;24.50;92.60
27026;DHT22;14565;48.626;8.978;2022-07-11T10:48:23;24.00;93.00
27026;DHT22;14565;48.626;8.978;2022-07-11T10:53:57;23.30;92.30
27026;DHT22;14565;48.626;8.978;2022-07-11T10:59:18;22.90;93.50
27026;DHT22;14565;48.626;8.978;2022-07-11T11:09:53;22.20;94.40
27026;DHT22;14565;48.626;8.978;2022-07-11T11:12:19;22.40;94.60
27026;DHT22;14565;48.626;8.978;2022-07-11T11:14:45;22.90;93.80
27026;DHT22;14565;48.626;8.978;2022-07-11T11:17:33;22.70;93.90
27026;DHT22;14565;48.626;8.978;2022-07-11T11:19:59;23.10;94.00
27026;DHT22;14565;48.626;8.978;2022-07-11T11:22:26;23.50;93.00
27026;DHT22;14565;48.626;8.978;2022-07-11T11:24:55;24.00;92.70
27026;DHT22;14565;48.626;8.978;2022-07-11T11:27:23;23.30;92.60
27026;DHT22;14565;48.626;8.978;2022-07-11T11:29:54;23.10;93.00
27026;DHT22;14565;48.626;8.978;2022-07-11T11:32:21;22.60;93.80
27026;DHT22;14565;48.626;8.978;2022-07-11T11:34:47;22.90;93.70
27026;DHT22;14565;48.626;8.978;2022-07-11T11:37:15;22.80;93.80
27026;DHT22;14565;48.626;8.978;2022-07-11T11:39:41;23.10;93.80
27026;DHT22;14565;48.626;8.978;2022-07-11T11:42:15;23.60;93.00
27026;DHT22;14565;48.626;8.978;2022-07-11T11:45:03;23.80;92.20
27026;DHT22;14565;48.626;8.978;2022-07-11T11:47:29;23.30;93.60
27026;DHT22;14565;48.626;8.978;2022-07-11T11:49:56;22.80;93.70
27026;DHT22;14565;48.626;8.978;2022-07-11T11:52:22;22.50;94.50
27026;DHT22;14565;48.626;8.978;2022-07-11T11:54:53;22.10;95.00
27026;DHT22;14565;48.626;8.978;2022-07-11T11:57:21;22.40;94.60
27026;DHT22;14565;48.626;8.978;2022-07-11T11:59:47;22.40;94.20
27026;DHT22;14565;48.626;8.978;2022-07-11T12:02:21;23.00;93.90
27026;DHT22;14565;48.626;8.978;2022-07-11T12:04:46;22.80;93.70
27026;DHT22;14565;48.626;8.978;2022-07-11T12:07:12;23.50;94.10
27026;DHT22;14565;48.626;8.978;2022-07-11T12:09:38;23.90;92.60
27026;DHT22;14565;48.626;8.978;2022-07-11T12:12:23;24.10;92.70
27026;DHT22;14565;48.626;8.978;2022-07-11T12:15:30;24.00;91.60
27026;DHT22;14565;48.626;8.978;2022-07-11T12:18:03;23.40;93.00
27026;DHT22;14565;48.626;8.978;2022-07-11T12:20:40;23.50;93.10
27026;DHT22;14565;48.626;8.978;2022-07-11T12:23:08;24.20;92.70
27026;DHT22;14565;48.626;8.978;2022-07-11T12:25:34;24.70;91.00
27026;DHT22;14565;48.626;8.978;2022-07-11T12:28:00;24.00;92.00
27026;DHT22;14565;48.626;8.978;2022-07-11T12:30:26;23.50;93.30
27026;DHT22;14565;48.626;8.978;2022-07-11T12:33:09;23.40;93.80
27026;DHT22;14565;48.626;8.978;2022-07-11T12:35:36;23.10;93.50
27026;DHT22;14565;48.626;8.978;2022-07-11T12:38:02;23.20;93.90
27026;DHT22;14565;48.626;8.978;2022-07-11T12:40:28;23.50;93.50
27026;DHT22;14565;48.626;8.978;2022-07-11T12:42:53;23.10;93.80
27026;DHT22;14565;48.626;8.978;2022-07-11T12:45:19;23.60;93.60
27026;DHT22;14565;48.626;8.978;2022-07-11T12:47:47;23.60;93.20
27026;DHT22;14565;48.626;8.978;2022-07-11T12:50:17;24.00;92.60
27026;DHT22;14565;48.626;8.978;2022-07-11T12:52:48;24.70;92.60
27026;DHT22;14565;48.626;8.978;2022-07-11T12:55:30;24.40;91.70
27026;DHT22;14565;48.626;8.978;2022-07-11T12:58:13;23.80;92.50
27026;DHT22;14565;48.626;8.978;2022-07-11T13:00:59;23.70;93.00
27026;DHT22;14565;48.626;8.978;2022-07-11T13:05:56;23.80;92.50
27026;DHT22;14565;48.626;8.978;2022-07-11T13:08:25;23.70;92.80
27026;DHT22;14565;48.626;8.978;2022-07-11T13:11:15;24.20;92.30
27026;DHT22;14565;48.626;8.978;2022-07-11T13:13:42;24.00;92.30
27026;DHT22;14565;48.626;8.978;2022-07-11T13:16:09;23.00;93.10
27026;DHT22;14565;48.626;8.978;2022-07-11T13:18:36;23.50;93.20
27026;DHT22;14565;48.626;8.978;2022-07-11T13:21:02;23.70;92.70
27026;DHT22;14565;48.626;8.978;2022-07-11T13:23:29;23.30;93.20
27026;DHT22;14565;48.626;8.978;2022-07-11T13:25:56;23.60;93.20
27026;DHT22;14565;48.626;8.978;2022-07-11T13:28:22;23.60;93.00
27026;DHT22;14565;48.626;8.978;2022-07-11T13:30:52;23.70;93.10
27026;DHT22;14565;48.626;8.978;2022-07-11T13:33:21;22.90;94.10
27026;DHT22;14565;48.626;8.978;2022-07-11T13:35:48;23.20;93.70
27026;DHT22;14565;48.626;8.978;2022-07-11T13:38:15;23.40;92.60
27026;DHT22;14565;48.626;8.978;2022-07-11T13:40:41;23.80;93.00
27026;DHT22;14565;48.626;8.978;2022-07-11T13:43:06;23.60;93.10
27026;DHT22;14565;48.626;8.978;2022-07-11T13:45:32;23.10;93.30
27026;DHT22;14565;48.626;8.978;2022-07-11T13:47:58;23.40;93.30
27026;DHT22;14565;48.626;8.978;2022-07-11T13:50:24;23.40;93.40
27026;DHT22;14565;48.626;8.978;2022-07-11T13:52:50;23.40;92.80
27026;DHT22;14565;48.626;8.978;2022-07-11T13:55:17;23.70;93.30
27026;DHT22;14565;48.626;8.978;2022-07-11T13:57:43;23.60;93.30
27026;DHT22;14565;48.626;8.978;2022-07-11T14:00:10;23.30;93.40
27026;DHT22;14565;48.626;8.978;2022-07-11T14:02:36;23.40;93.00
27026;DHT22;14565;48.626;8.978;2022-07-11T14:05:01;22.90;93.50
27026;DHT22;14565;48.626;8.978;2022-07-11T14:07:27;23.00;94.30
27026;DHT22;14565;48.626;8.978;2022-07-11T14:09:53;23.10;94.50
27026;DHT22;14565;48.626;8.978;2022-07-11T14:12:19;23.20;94.20
27026;DHT22;14565;48.626;8.978;2022-07-11T14:14:45;23.20;94.60
27026;DHT22;14565;48.626;8.978;2022-07-11T14:17:11;23.10;94.60
27026;DHT22;14565;48.626;8.978;2022-07-11T14:19:37;23.00;95.00
27026;DHT22;14565;48.626;8.978;2022-07-11T14:22:05;23.00;95.20
27026;DHT22;14565;48.626;8.978;2022-07-11T14:24:32;22.70;95.10
27026;DHT22;14565;48.626;8.978;2022-07-11T14:26:57;22.70;95.00
27026;DHT22;14565;48.626;8.978;2022-07-11T14:29:23;22.60;95.40
27026;DHT22;14565;48.626;8.978;2022-07-11T14:31:51;23.10;95.20
27026;DHT22;14565;48.626;8.978;2022-07-11T14:34:18;23.20;94.90
27026;DHT22;14565;48.626;8.978;2022-07-11T14:36:44;23.30;94.90
27026;DHT22;14565;48.626;8.978;2022-07-11T14:39:09;23.30;94.60
27026;DHT22;14565;48.626;8.978;2022-07-11T14:41:35;23.50;94.00
27026;DHT22;14565;48.626;8.978;2022-07-11T14:44:01;23.60;93.50
27026;DHT22;14565;48.626;8.978;2022-07-11T14:46:28;23.60;93.90
27026;DHT22;14565;48.626;8.978;2022-07-11T14:48:54;22.90;95.30
27026;DHT22;14565;48.626;8.978;2022-07-11T14:51:19;23.10;94.60
27026;DHT22;14565;48.626;8.978;2022-07-11T14:53:45;22.80;95.20
27026;DHT22;14565;48.626;8.978;2022-07-11T14:56:11;22.80;95.80
27026;DHT22;14565;48.626;8.978;2022-07-11T14:58:37;23.10;95.50
27026;DHT22;14565;48.626;8.978;2022-07-11T15:01:02;23.30;94.70
27026;DHT22;14565;48.626;8.978;2022-07-11T15:03:28;23.10;94.80
27026;DHT22;14565;48.626;8.978;2022-07-11T15:06:04;23.20;94.50
27026;DHT22;14565;48.626;8.978;2022-07-11T15:08:30;22.80;95.00
27026;DHT22;14565;48.626;8.978;2022-07-11T15:11:14;23.10;94.90
27026;DHT22;14565;48.626;8.978;2022-07-11T15:13:58;22.80;95.20
27026;DHT22;14565;48.626;8.978;2022-07-11T15:16:24;22.80;95.30
27026;DHT22;14565;48.626;8.978;2022-07-11T15:18:52;22.60;95.40
27026;DHT22;14565;48.626;8.978;2022-07-11T15:21:18;22.50;95.80
27026;DHT22;14565;48.626;8.978;2022-07-11T15:23:43;23.30;94.80
27026;DHT22;14565;48.626;8.978;2022-07-11T15:26:09;23.60;94.40
27026;DHT22;14565;48.626;8.978;2022-07-11T15:28:35;23.30;94.50
27026;DHT22;14565;48.626;8.978;2022-07-11T15:31:00;23.30;95.10
27026;DHT22;14565;48.626;8.978;2022-07-11T15:33:26;23.30;95.60
27026;DHT22;14565;48.626;8.978;2022-07-11T15:35:52;22.80;95.10
27026;DHT22;14565;48.626;8.978;2022-07-11T15:38:20;22.80;95.50
27026;DHT22;14565;48.626;8.978;2022-07-11T15:40:46;22.60;96.10
27026;DHT22;14565;48.626;8.978;2022-07-11T15:43:13;22.60;95.70
27026;DHT22;14565;48.626;8.978;2022-07-11T15:45:40;22.80;95.60
27026;DHT22;14565;48.626;8.978;2022-07-11T15:48:05;22.70;95.60
27026;DHT22;14565;48.626;8.978;2022-07-11T15:50:31;22.70;95.40
27026;DHT22;14565;48.626;8.978;2022-07-11T15:52:57;22.50;96.00
27026;DHT22;14565;48.626;8.978;2022-07-11T15:55:26;22.80;96.60
27026;DHT22;14565;48.626;8.978;2022-07-11T15:57:52;23.00;95.90
27026;DHT22;14565;48.626;8.978;2022-07-11T16:00:18;22.60;96.30
27026;DHT22;14565;48.626;8.978;2022-07-11T16:02:46;22.80;96.40
27026;DHT22;14565;48.626;8.978;2022-07-11T16:05:11;22.80;95.80
27026;DHT22;14565;48.626;8.978;2022-07-11T16:07:37;22.60;95.60
27026;DHT22;14565;48.626;8.978;2022-07-11T16:10:03;22.60;95.50
27026;DHT22;14565;48.626;8.978;2022-07-11T16:12:33;22.70;96.10
27026;DHT22;14565;48.626;8.978;2022-07-11T16:15:00;22.80;95.60